Time;durP1;ratioP1;P1;durP2;ratioP2;P2;SDS_P1;SDS_P2;PMS_P1;PMS_P2;Temp;Humidity;BMP_temperature;BMP_pressure;BME280_temperature;BME280_humidity;BME280_pressure;Samples;Min_cycle;Max_cycle;Signal;HPM_P1;HPM_P2
2023/05/04 00:02:20;;;;;;;;;;;;;;;2.40;72.22;101485.67;102630;278;93672;-54
2023/05/04 00:04:57;;;;;;;;;;;;;;;2.34;72.32;101483.02;102667;278;97782;-54
2023/05/04 00:07:36;;;;;;;;;;;;;;;2.30;72.47;101483.90;102650;278;119492;-55
2023/05/04 00:10:11;;;;;;;;;;;;;;;2.28;72.57;101483.99;102590;277;105234;-54
2023/05/04 00:12:46;;;;;;;;;;;;;;;2.24;72.70;101484.63;102533;277;114963;-54
2023/05/04 00:15:22;;;;;;;;;;;;;;;2.18;72.90;101480.98;102541;281;93824;-56
2023/05/04 00:18:01;;;;;;;;;;;;;;;2.14;72.93;101484.14;102536;278;96717;-56
2023/05/04 00:20:36;;;;;;;;;;;;;;;2.12;73.01;101483.20;102528;277;118066;-55
2023/05/04 00:23:11;;;;;;;;;;;;;;;2.10;73.13;101489.25;102510;266;103630;-56
2023/05/04 00:25:47;;;;;;;;;;;;;;;2.04;73.22;101494.12;102515;278;113705;-54
2023/05/04 00:28:26;;;;;;;;;;;;;;;1.99;73.30;101496.06;102560;277;93698;-54
2023/05/04 00:31:02;;;;;;;;;;;;;;;1.94;73.51;101495.33;102569;278;98111;-54
2023/05/04 00:33:39;;;;;;;;;;;;;;;1.87;73.54;101495.73;102569;277;119437;-54
2023/05/04 00:36:20;;;;;;;;;;;;;;;1.83;73.61;101494.34;102550;278;105533;-54
2023/05/04 00:39:00;;;;;;;;;;;;;;;1.84;73.47;101493.75;102525;277;114171;-54
2023/05/04 00:41:37;;;;;;;;;;;;;;;1.84;73.50;101496.10;102536;277;93215;-56
2023/05/04 00:44:17;;;;;;;;;;;;;;;1.79;73.78;101496.20;102519;278;97987;-56
2023/05/04 00:46:55;;;;;;;;;;;;;;;1.81;73.75;101496.49;102540;277;117930;-55
2023/05/04 00:49:36;;;;;;;;;;;;;;;1.82;73.66;101490.73;102585;277;105607;-55
2023/05/04 00:52:13;;;;;;;;;;;;;;;1.79;74.07;101495.16;102502;277;115230;-57
2023/05/04 00:54:48;;;;;;;;;;;;;;;1.76;74.22;101494.14;102546;277;92802;-53
2023/05/04 00:57:26;;;;;;;;;;;;;;;1.73;74.10;101491.98;102539;277;96857;-53
2023/05/04 01:00:04;;;;;;;;;;;;;;;1.68;74.34;101492.55;102595;277;120068;-53
2023/05/04 01:02:40;;;;;;;;;;;;;;;1.68;74.33;101492.05;102523;278;105489;-54
2023/05/04 01:05:15;;;;;;;;;;;;;;;1.65;74.38;101491.14;102543;279;113533;-54
2023/05/04 01:07:56;;;;;;;;;;;;;;;1.62;74.58;101492.79;102533;277;93950;-56
2023/05/04 01:10:42;;;;;;;;;;;;;;;1.60;74.80;101492.40;102560;277;97044;-55
2023/05/04 01:13:23;;;;;;;;;;;;;;;1.60;74.91;101490.25;102543;278;119916;-56
2023/05/04 01:15:59;;;;;;;;;;;;;;;1.61;75.03;101495.38;102509;278;105219;-55
2023/05/04 01:18:35;;;;;;;;;;;;;;;1.62;74.95;101492.45;102507;277;114673;-55
2023/05/04 01:21:10;;;;;;;;;;;;;;;1.63;75.09;101493.42;102519;277;95247;-54
2023/05/04 01:23:47;;;;;;;;;;;;;;;1.66;75.14;101490.58;102531;277;97465;-54
2023/05/04 01:26:28;;;;;;;;;;;;;;;1.69;75.12;101488.23;102536;277;119286;-56
2023/05/04 01:29:04;;;;;;;;;;;;;;;1.69;75.18;101485.54;102538;277;106080;-57
2023/05/04 01:31:41;;;;;;;;;;;;;;;1.75;75.20;101484.95;102531;277;114238;-53
2023/05/04 01:34:20;;;;;;;;;;;;;;;1.79;75.22;101486.50;102654;277;95332;-53
2023/05/04 01:36:56;;;;;;;;;;;;;;;1.84;75.23;101487.52;102523;277;97634;-53
2023/05/04 01:39:33;;;;;;;;;;;;;;;1.86;75.27;101485.47;102596;277;119900;-54
2023/05/04 01:42:14;;;;;;;;;;;;;;;1.87;75.31;101485.21;102539;278;105734;-52
2023/05/04 01:44:51;;;;;;;;;;;;;;;1.90;75.26;101487.17;102556;278;113019;-53
2023/05/04 01:47:29;;;;;;;;;;;;;;;1.88;75.25;101481.44;102549;277;92415;-54
2023/05/04 01:50:06;;;;;;;;;;;;;;;1.81;75.31;101480.45;102548;277;97820;-55
2023/05/04 01:52:41;;;;;;;;;;;;;;;1.74;75.46;101479.86;102572;278;119755;-55
2023/05/04 01:55:17;;;;;;;;;;;;;;;1.66;75.38;101475.13;102572;278;105568;-55
2023/05/04 01:57:57;;;;;;;;;;;;;;;1.59;75.35;101476.88;102576;277;114915;-55
2023/05/04 02:00:34;;;;;;;;;;;;;;;1.49;75.38;101476.46;102541;266;93640;-52
2023/05/04 02:03:15;;;;;;;;;;;;;;;1.44;75.40;101478.44;102566;277;96655;-53
2023/05/04 02:05:55;;;;;;;;;;;;;;;1.39;75.43;101482.89;102579;277;118457;-53
2023/05/04 02:08:37;;;;;;;;;;;;;;;1.34;75.49;101482.83;102609;277;103367;-53
2023/05/04 02:11:15;;;;;;;;;;;;;;;1.30;75.52;101481.02;102552;277;113257;-53
2023/05/04 02:13:59;;;;;;;;;;;;;;;1.28;75.59;101480.63;102548;277;93197;-52
2023/05/04 02:16:35;;;;;;;;;;;;;;;1.21;75.71;101480.88;102554;277;96181;-54
2023/05/04 02:19:21;;;;;;;;;;;;;;;1.13;75.83;101483.73;102512;277;119184;-53
2023/05/04 02:22:01;;;;;;;;;;;;;;;1.08;75.89;101480.73;102551;278;104980;-56
2023/05/04 02:24:35;;;;;;;;;;;;;;;1.05;75.94;101481.06;102510;277;113210;-55
2023/05/04 02:27:12;;;;;;;;;;;;;;;1.02;76.10;101482.55;102518;277;93372;-57
2023/05/04 02:29:50;;;;;;;;;;;;;;;0.96;76.17;101481.52;102568;278;98926;-56
2023/05/04 02:32:30;;;;;;;;;;;;;;;0.92;76.25;101483.39;102556;277;118562;-55
2023/05/04 02:35:10;;;;;;;;;;;;;;;0.88;76.43;101485.06;102558;277;106264;-57
2023/05/04 02:37:48;;;;;;;;;;;;;;;0.85;76.55;101482.42;102553;277;113442;-57
2023/05/04 02:40:24;;;;;;;;;;;;;;;0.83;76.68;101483.46;102535;278;93435;-54
2023/05/04 02:43:00;;;;;;;;;;;;;;;0.81;76.79;101480.44;102585;277;97574;-54
2023/05/04 02:45:43;;;;;;;;;;;;;;;0.78;76.87;101480.42;102498;278;119584;-55
2023/05/04 02:48:20;;;;;;;;;;;;;;;0.77;76.94;101481.38;102571;277;106974;-55
2023/05/04 02:50:55;;;;;;;;;;;;;;;0.76;77.08;101480.39;102589;278;115401;-55
2023/05/04 02:53:32;;;;;;;;;;;;;;;0.75;77.14;101481.14;102533;278;94903;-55
2023/05/04 02:56:09;;;;;;;;;;;;;;;0.76;77.31;101479.17;102601;278;97436;-56
2023/05/04 02:58:46;;;;;;;;;;;;;;;0.78;77.40;101477.46;102647;278;119982;-57
2023/05/04 03:01:22;;;;;;;;;;;;;;;0.81;77.66;101478.13;102600;278;106124;-56
2023/05/04 03:04:02;;;;;;;;;;;;;;;0.86;77.87;101477.23;102610;278;113928;-56
2023/05/04 03:06:38;;;;;;;;;;;;;;;0.90;77.83;101480.49;102593;278;95879;-56
2023/05/04 03:09:18;;;;;;;;;;;;;;;0.95;78.00;101480.53;102656;278;96798;-56
2023/05/04 03:11:56;;;;;;;;;;;;;;;1.00;78.02;101483.42;102658;278;119205;-55
2023/05/04 03:14:31;;;;;;;;;;;;;;;1.05;78.24;101487.13;102612;278;105602;-54
2023/05/04 03:17:06;;;;;;;;;;;;;;;1.11;78.24;101481.61;102620;278;113642;-56
2023/05/04 03:19:43;;;;;;;;;;;;;;;1.16;78.24;101483.71;102659;278;95190;-55
2023/05/04 03:22:16;;;;;;;;;;;;;;;1.26;78.31;101483.80;102644;278;96853;-55
2023/05/04 03:24:56;;;;;;;;;;;;;;;1.30;78.20;101481.91;102149;278;587574;-55
2023/05/04 03:27:35;;;;;;;;;;;;;;;1.36;78.23;101483.29;102595;278;105844;-55
2023/05/04 03:30:13;;;;;;;;;;;;;;;1.47;78.21;101480.89;102594;278;114711;-55
2023/05/04 03:32:52;;;;;;;;;;;;;;;1.56;78.32;101478.88;102636;278;96153;-55
2023/05/04 03:35:28;;;;;;;;;;;;;;;1.62;78.29;101479.11;102667;278;96739;-55
2023/05/04 03:38:02;;;;;;;;;;;;;;;1.68;78.26;101478.52;102647;278;118414;-54
2023/05/04 03:40:39;;;;;;;;;;;;;;;1.75;78.25;101481.76;102646;278;105276;-54
2023/05/04 03:43:16;;;;;;;;;;;;;;;1.87;78.11;101479.71;102616;278;114606;-54
2023/05/04 03:45:54;;;;;;;;;;;;;;;2.01;78.08;101483.16;102581;278;93184;-53
2023/05/04 03:48:32;;;;;;;;;;;;;;;2.62;78.16;101483.84;102576;278;97001;-53
2023/05/04 03:51:12;;;;;;;;;;;;;;;4.08;77.59;101481.23;102622;278;119552;-53
2023/05/04 03:53:45;;;;;;;;;;;;;;;5.49;76.15;101477.09;102394;280;108136;-54
2023/05/04 03:56:20;;;;;;;;;;;;;;;5.76;75.13;101475.45;102578;278;113698;-54
2023/05/04 03:59:02;;;;;;;;;;;;;;;6.59;74.51;101477.79;102613;278;93630;-54
2023/05/04 04:01:39;;;;;;;;;;;;;;;7.94;73.42;101475.28;102632;278;96186;-54
2023/05/04 04:04:14;;;;;;;;;;;;;;;9.18;71.71;101468.29;102622;278;118532;-53
2023/05/04 04:06:48;;;;;;;;;;;;;;;9.61;70.33;101472.19;102494;279;106100;-54
2023/05/04 04:09:23;;;;;;;;;;;;;;;9.26;69.16;101477.17;102589;278;113442;-54
2023/05/04 04:11:58;;;;;;;;;;;;;;;8.84;68.57;101478.88;102580;278;94433;-56
2023/05/04 04:14:32;;;;;;;;;;;;;;;8.34;67.90;101480.65;102613;278;97827;-55
2023/05/04 04:17:09;;;;;;;;;;;;;;;7.84;67.62;101486.37;102618;278;120625;-56
2023/05/04 04:19:43;;;;;;;;;;;;;;;7.53;67.56;101488.35;102640;278;106073;-56
2023/05/04 04:22:25;;;;;;;;;;;;;;;7.34;67.53;101488.59;102617;278;114520;-57
2023/05/04 04:24:59;;;;;;;;;;;;;;;7.04;67.45;101491.86;102606;278;93090;-54
2023/05/04 04:27:33;;;;;;;;;;;;;;;6.79;67.54;101493.29;102617;278;95887;-54
2023/05/04 04:30:11;;;;;;;;;;;;;;;6.70;67.81;101494.89;102631;278;119368;-54
2023/05/04 04:32:43;;;;;;;;;;;;;;;6.66;67.91;101497.73;102599;278;103233;-55
2023/05/04 04:35:17;;;;;;;;;;;;;;;6.62;68.10;101498.81;102642;277;113818;-53
2023/05/04 04:37:51;;;;;;;;;;;;;;;6.71;68.10;101501.98;102639;278;93696;-55
2023/05/04 04:40:27;;;;;;;;;;;;;;;7.43;68.62;101498.83;102609;278;98159;-56
2023/05/04 04:43:03;;;;;;;;;;;;;;;9.72;68.03;101487.34;102528;278;119582;-56
2023/05/04 04:45:41;;;;;;;;;;;;;;;12.20;65.31;101480.27;102583;278;105691;-55
2023/05/04 04:48:20;;;;;;;;;;;;;;;14.31;63.10;101472.89;102525;278;114279;-55
2023/05/04 04:50:57;;;;;;;;;;;;;;;15.98;60.76;101469.02;102575;278;93633;-56
2023/05/04 04:53:34;;;;;;;;;;;;;;;17.40;58.58;101462.48;102559;278;97843;-57
2023/05/04 04:56:09;;;;;;;;;;;;;;;18.43;56.38;101458.63;102618;277;119810;-58
2023/05/04 04:58:46;;;;;;;;;;;;;;;19.04;54.89;101462.02;102574;277;104846;-59
2023/05/04 05:01:22;;;;;;;;;;;;;;;19.67;53.57;101460.50;102571;277;113682;-58
2023/05/04 05:04:01;;;;;;;;;;;;;;;20.23;52.75;101459.89;102551;277;93780;-58
2023/05/04 05:06:38;;;;;;;;;;;;;;;21.03;50.92;101458.65;102572;278;99082;-56
2023/05/04 05:09:13;;;;;;;;;;;;;;;21.90;48.71;101458.89;102563;278;119936;-57
2023/05/04 05:11:52;;;;;;;;;;;;;;;22.84;46.35;101455.05;102608;278;105930;-56
2023/05/04 05:14:30;;;;;;;;;;;;;;;23.77;43.53;101460.33;102595;278;113691;-57
2023/05/04 05:17:10;;;;;;;;;;;;;;;24.28;41.80;101463.59;102543;278;95094;-56
2023/05/04 05:19:50;;;;;;;;;;;;;;;24.42;40.11;101464.45;102575;278;97558;-58
2023/05/04 05:22:27;;;;;;;;;;;;;;;24.06;39.04;101463.40;102546;277;120821;-58
2023/05/04 05:25:03;;;;;;;;;;;;;;;23.95;38.04;101463.94;102539;277;104613;-58
2023/05/04 05:27:42;;;;;;;;;;;;;;;24.33;37.64;101462.33;102572;278;113440;-58
2023/05/04 05:30:18;;;;;;;;;;;;;;;25.17;36.22;101459.51;102520;278;94979;-58
2023/05/04 05:32:52;;;;;;;;;;;;;;;26.02;35.33;101462.77;102546;278;97627;-58
2023/05/04 05:35:29;;;;;;;;;;;;;;;26.45;34.81;101459.64;102534;278;119251;-57
2023/05/04 05:38:03;;;;;;;;;;;;;;;26.54;34.17;101459.80;102486;278;106010;-56
2023/05/04 05:40:38;;;;;;;;;;;;;;;26.78;33.67;101455.66;102551;277;114147;-55
2023/05/04 05:43:11;;;;;;;;;;;;;;;27.39;32.56;101456.15;102545;278;94477;-55
2023/05/04 05:45:50;;;;;;;;;;;;;;;27.79;32.04;101458.76;102545;277;98274;-56
2023/05/04 05:48:26;;;;;;;;;;;;;;;28.16;31.19;101462.74;102570;277;120516;-56
2023/05/04 05:51:02;;;;;;;;;;;;;;;28.41;30.04;101455.70;102505;277;105928;-57
2023/05/04 05:53:36;;;;;;;;;;;;;;;28.50;29.86;101454.13;102575;266;114365;-57
2023/05/04 05:56:12;;;;;;;;;;;;;;;28.64;29.23;101457.70;102562;277;94674;-59
2023/05/04 05:58:47;;;;;;;;;;;;;;;28.65;29.00;101457.48;102632;277;96260;-58
2023/05/04 06:01:20;;;;;;;;;;;;;;;28.69;28.15;101455.96;102549;277;117338;-59
2023/05/04 06:03:59;;;;;;;;;;;;;;;29.03;27.50;101447.52;102556;277;105095;-59
2023/05/04 06:06:34;;;;;;;;;;;;;;;29.04;26.90;101442.30;102533;278;114229;-58
2023/05/04 06:09:12;;;;;;;;;;;;;;;29.14;26.84;101443.61;102567;266;95265;-59
2023/05/04 06:11:46;;;;;;;;;;;;;;;29.81;26.42;101441.40;102531;277;97605;-57
2023/05/04 06:14:21;;;;;;;;;;;;;;;30.23;25.80;101438.89;102582;277;119780;-57
2023/05/04 06:16:55;;;;;;;;;;;;;;;30.53;25.47;101438.51;102573;278;105264;-58
2023/05/04 06:19:34;;;;;;;;;;;;;;;30.90;24.46;101436.70;102565;277;114607;-56
2023/05/04 06:22:13;;;;;;;;;;;;;;;31.11;24.03;101438.23;102526;277;95404;-57
2023/05/04 06:24:52;;;;;;;;;;;;;;;31.28;23.66;101433.68;102572;277;97617;-58
2023/05/04 06:27:34;;;;;;;;;;;;;;;31.41;23.35;101435.44;102553;277;117970;-59
2023/05/04 06:30:11;;;;;;;;;;;;;;;31.20;23.10;101435.86;102563;277;105596;-57
2023/05/04 06:32:50;;;;;;;;;;;;;;;31.67;22.58;101440.27;102570;278;113920;-55
2023/05/04 06:35:22;;;;;;;;;;;;;;;31.70;22.07;101440.80;102558;277;94603;-58
2023/05/04 06:38:00;;;;;;;;;;;;;;;31.80;21.87;101443.75;102522;277;96740;-58
2023/05/04 06:40:38;;;;;;;;;;;;;;;31.93;21.85;101443.77;102567;278;119538;-56
2023/05/04 06:43:12;;;;;;;;;;;;;;;32.09;21.97;101444.73;102585;277;105813;-56
2023/05/04 06:45:50;;;;;;;;;;;;;;;32.45;21.66;101445.11;102493;277;114433;-56
2023/05/04 06:48:26;;;;;;;;;;;;;;;32.44;21.00;101447.93;102514;277;93377;-57
2023/05/04 06:51:00;;;;;;;;;;;;;;;32.19;21.14;101443.55;102599;266;98220;-55
2023/05/04 06:53:37;;;;;;;;;;;;;;;31.95;21.19;101441.22;102596;277;119133;-56
2023/05/04 06:56:21;;;;;;;;;;;;;;;31.68;20.92;101437.48;102620;277;104793;-57
2023/05/04 06:59:01;;;;;;;;;;;;;;;31.63;20.62;101439.41;102554;278;114314;-58
2023/05/04 07:01:33;;;;;;;;;;;;;;;31.83;20.73;101442.82;102606;278;94169;-56
2023/05/04 07:04:06;;;;;;;;;;;;;;;32.08;20.46;101442.45;102666;278;96484;-56
2023/05/04 07:06:46;;;;;;;;;;;;;;;32.00;20.27;101440.84;102616;278;120572;-56
2023/05/04 07:09:22;;;;;;;;;;;;;;;31.97;20.04;101445.09;102590;278;104291;-56
2023/05/04 07:11:57;;;;;;;;;;;;;;;32.24;19.71;101446.30;102594;278;111960;-58
2023/05/04 07:14:33;;;;;;;;;;;;;;;32.19;19.39;101442.14;102526;278;93543;-56
2023/05/04 07:17:12;;;;;;;;;;;;;;;32.16;19.33;101443.15;102610;278;97059;-58
2023/05/04 07:19:51;;;;;;;;;;;;;;;32.26;19.32;101447.33;102617;278;120137;-55
2023/05/04 07:22:30;;;;;;;;;;;;;;;32.40;19.44;101442.52;102649;278;104061;-54
2023/05/04 07:25:04;;;;;;;;;;;;;;;32.63;19.37;101440.78;102586;278;114375;-58
2023/05/04 07:27:42;;;;;;;;;;;;;;;32.77;18.75;101442.02;102609;278;94918;-58
2023/05/04 07:30:16;;;;;;;;;;;;;;;32.58;18.43;101440.98;102604;277;96931;-55
2023/05/04 07:32:52;;;;;;;;;;;;;;;32.71;18.39;101446.10;102603;278;118683;-55
2023/05/04 07:35:31;;;;;;;;;;;;;;;32.81;17.82;101444.54;102632;278;104822;-56
2023/05/04 07:38:11;;;;;;;;;;;;;;;31.95;18.05;101444.84;102613;278;114121;-57
2023/05/04 07:40:49;;;;;;;;;;;;;;;32.00;18.43;101440.81;102620;278;93835;-56
2023/05/04 07:43:25;;;;;;;;;;;;;;;31.17;18.61;101438.20;102634;278;96133;-56
2023/05/04 07:46:02;;;;;;;;;;;;;;;31.22;18.60;101436.89;102654;278;120757;-57
2023/05/04 07:48:36;;;;;;;;;;;;;;;31.41;18.37;101433.44;102651;278;104443;-54
2023/05/04 07:51:18;;;;;;;;;;;;;;;31.40;18.68;101428.48;102582;278;114510;-56
2023/05/04 07:53:57;;;;;;;;;;;;;;;31.82;18.82;101427.96;102588;278;94955;-57
2023/05/04 07:56:30;;;;;;;;;;;;;;;32.03;18.92;101426.89;102605;278;97629;-54
2023/05/04 07:59:03;;;;;;;;;;;;;;;32.34;18.11;101429.77;102656;278;119879;-56
2023/05/04 08:01:38;;;;;;;;;;;;;;;32.28;18.35;101427.99;102574;278;108294;-57
2023/05/04 08:04:14;;;;;;;;;;;;;;;32.45;17.51;101425.58;102596;278;115037;-58
2023/05/04 08:06:49;;;;;;;;;;;;;;;32.30;17.07;101428.81;102692;278;95186;-58
2023/05/04 08:09:31;;;;;;;;;;;;;;;29.89;17.37;101427.27;102621;277;97589;-56
2023/05/04 08:12:08;;;;;;;;;;;;;;;27.74;18.45;101428.23;102613;278;119498;-56
2023/05/04 08:14:42;;;;;;;;;;;;;;;26.26;18.91;101438.05;102612;278;105651;-56
2023/05/04 08:17:17;;;;;;;;;;;;;;;24.94;19.20;101439.41;102567;278;114497;-56
2023/05/04 08:19:54;;;;;;;;;;;;;;;23.94;19.28;101442.44;102600;278;94511;-55
2023/05/04 08:22:34;;;;;;;;;;;;;;;23.20;19.82;101443.54;102649;278;98338;-54
2023/05/04 08:25:10;;;;;;;;;;;;;;;22.92;20.45;101441.13;102640;278;120813;-55
2023/05/04 08:27:45;;;;;;;;;;;;;;;23.75;20.61;101442.73;102646;278;104264;-56
2023/05/04 08:30:18;;;;;;;;;;;;;;;24.67;20.15;101437.23;102553;278;114381;-55
2023/05/04 08:32:54;;;;;;;;;;;;;;;26.04;20.15;101438.80;102506;278;94785;-57
2023/05/04 08:35:29;;;;;;;;;;;;;;;27.13;20.74;101430.83;102510;278;97343;-57
2023/05/04 08:38:07;;;;;;;;;;;;;;;27.88;19.58;101435.53;102542;278;120197;-58
2023/05/04 08:40:42;;;;;;;;;;;;;;;28.61;19.62;101435.17;102522;278;104180;-57
2023/05/04 08:43:17;;;;;;;;;;;;;;;29.33;19.20;101431.94;102544;278;114818;-58
2023/05/04 08:45:51;;;;;;;;;;;;;;;29.47;18.60;101433.17;102530;278;93780;-54
2023/05/04 08:48:25;;;;;;;;;;;;;;;28.99;19.12;101430.19;102563;266;97269;-56
2023/05/04 08:51:03;;;;;;;;;;;;;;;28.97;19.27;101428.59;102525;278;120313;-57
2023/05/04 08:53:41;;;;;;;;;;;;;;;29.10;19.50;101427.84;102550;277;105134;-56
2023/05/04 08:56:20;;;;;;;;;;;;;;;29.50;19.47;101426.87;102569;278;114832;-55
2023/05/04 08:59:02;;;;;;;;;;;;;;;30.10;19.69;101425.13;102521;278;94872;-55
2023/05/04 09:01:37;;;;;;;;;;;;;;;30.03;19.42;101424.71;102560;278;97688;-59
2023/05/04 09:04:11;;;;;;;;;;;;;;;30.32;19.36;101425.74;102568;277;121300;-58
2023/05/04 09:06:47;;;;;;;;;;;;;;;30.54;19.34;101426.85;102540;278;105560;-58
2023/05/04 09:09:24;;;;;;;;;;;;;;;30.51;18.37;101426.72;102515;278;114627;-58
2023/05/04 09:11:58;;;;;;;;;;;;;;;29.88;18.28;101427.85;102500;278;93023;-57
2023/05/04 09:14:41;;;;;;;;;;;;;;;29.43;18.17;101425.19;102559;278;97235;-56
2023/05/04 09:17:24;;;;;;;;;;;;;;;28.61;18.25;101422.27;102558;278;120637;-57
2023/05/04 09:20:05;;;;;;;;;;;;;;;27.27;18.39;101418.94;102590;278;106057;-57
2023/05/04 09:22:39;;;;;;;;;;;;;;;26.31;19.51;101425.88;102573;278;114786;-56
2023/05/04 09:25:15;;;;;;;;;;;;;;;26.27;19.89;101427.90;102513;277;94869;-58
2023/05/04 09:27:57;;;;;;;;;;;;;;;26.02;20.39;101422.79;102547;277;95992;-58
2023/05/04 09:30:34;;;;;;;;;;;;;;;25.56;20.49;101417.88;102532;278;120512;-57
2023/05/04 09:33:11;;;;;;;;;;;;;;;25.32;20.38;101419.51;102548;278;105400;-57
2023/05/04 09:35:44;;;;;;;;;;;;;;;25.08;20.63;101420.69;102541;277;112544;-54
2023/05/04 09:38:30;;;;;;;;;;;;;;;24.86;20.69;101415.58;102563;277;94691;-54
2023/05/04 09:41:03;;;;;;;;;;;;;;;24.71;20.52;101413.29;102561;277;97423;-58
2023/05/04 09:43:42;;;;;;;;;;;;;;;24.55;20.53;101419.10;102565;277;121082;-58
2023/05/04 09:46:20;;;;;;;;;;;;;;;24.30;20.40;101414.95;102574;277;105203;-58
2023/05/04 09:49:00;;;;;;;;;;;;;;;23.88;21.12;101413.42;102576;277;114486;-58
2023/05/04 09:51:35;;;;;;;;;;;;;;;23.77;20.84;101410.58;102543;277;95152;-56
2023/05/04 09:54:11;;;;;;;;;;;;;;;23.83;20.78;101405.22;102573;277;97291;-55
2023/05/04 09:56:46;;;;;;;;;;;;;;;23.92;20.85;101401.60;102590;277;120269;-55
2023/05/04 09:59:23;;;;;;;;;;;;;;;23.69;20.85;101404.72;102576;277;105145;-55
2023/05/04 10:01:57;;;;;;;;;;;;;;;23.29;21.24;101401.42;102552;277;113913;-55
2023/05/04 10:04:32;;;;;;;;;;;;;;;23.30;21.49;101404.03;102532;278;92543;-55
2023/05/04 10:07:08;;;;;;;;;;;;;;;22.96;21.61;101404.49;102572;277;97176;-57
2023/05/04 10:09:41;;;;;;;;;;;;;;;22.79;22.02;101397.33;102577;277;119674;-57
2023/05/04 10:12:14;;;;;;;;;;;;;;;22.10;22.26;101392.67;102586;277;105799;-57
2023/05/04 10:14:50;;;;;;;;;;;;;;;22.15;22.70;101389.90;102559;277;114254;-58
2023/05/04 10:17:35;;;;;;;;;;;;;;;22.42;23.45;101387.79;102550;277;94449;-58
2023/05/04 10:20:33;;;;;;;;;;;;;;;22.28;23.05;101387.30;102559;277;97917;-58
2023/05/04 10:23:19;;;;;;;;;;;;;;;21.70;23.62;101389.48;102540;277;121463;-57
2023/05/04 10:26:07;;;;;;;;;;;;;;;21.25;23.62;101391.57;102545;277;105110;-57
2023/05/04 10:28:58;;;;;;;;;;;;;;;20.74;24.39;101387.71;102517;277;114496;-58
2023/05/04 10:31:45;;;;;;;;;;;;;;;20.67;24.91;101382.85;102540;278;94371;-55
2023/05/04 10:34:30;;;;;;;;;;;;;;;20.75;25.25;101379.19;102521;277;98192;-54
2023/05/04 10:37:03;;;;;;;;;;;;;;;20.92;25.49;101379.83;102547;277;120966;-55
2023/05/04 10:39:52;;;;;;;;;;;;;;;21.00;25.61;101378.23;102549;277;106518;-56
2023/05/04 10:42:41;;;;;;;;;;;;;;;20.90;26.24;101371.63;102535;278;115188;-54
2023/05/04 10:45:13;;;;;;;;;;;;;;;20.90;26.02;101372.85;102555;277;92708;-55
2023/05/04 10:48:00;;;;;;;;;;;;;;;21.07;26.06;101369.14;102550;277;97215;-55
2023/05/04 10:50:43;;;;;;;;;;;;;;;21.26;25.81;101366.24;102602;277;120754;-54
2023/05/04 10:53:20;;;;;;;;;;;;;;;21.03;25.44;101367.77;102575;278;105557;-55
2023/05/04 10:55:58;;;;;;;;;;;;;;;21.11;25.77;101366.73;102584;278;114334;-56
2023/05/04 10:58:36;;;;;;;;;;;;;;;20.82;25.57;101367.64;102581;277;94161;-56
2023/05/04 11:01:18;;;;;;;;;;;;;;;20.25;25.58;101360.71;102645;278;98010;-58
2023/05/04 11:03:54;;;;;;;;;;;;;;;20.20;25.55;101357.14;102598;278;120809;-57
2023/05/04 11:06:33;;;;;;;;;;;;;;;20.41;25.73;101355.94;102622;278;104748;-58
2023/05/04 11:09:09;;;;;;;;;;;;;;;20.30;25.89;101354.60;102619;278;113827;-56
2023/05/04 11:11:41;;;;;;;;;;;;;;;20.50;25.89;101349.61;102487;278;95100;-56
2023/05/04 11:14:23;;;;;;;;;;;;;;;20.60;25.83;101348.69;102532;278;97200;-55
2023/05/04 11:17:07;;;;;;;;;;;;;;;20.89;25.76;101347.71;102507;279;119836;-56
2023/05/04 11:19:52;;;;;;;;;;;;;;;20.87;25.73;101345.63;102504;278;105622;-57
2023/05/04 11:22:25;;;;;;;;;;;;;;;21.09;26.07;101337.67;102540;278;114912;-57
2023/05/04 11:25:07;;;;;;;;;;;;;;;21.22;25.74;101328.38;101907;279;713145;-57
2023/05/04 11:27:42;;;;;;;;;;;;;;;21.05;25.14;101328.85;102525;278;97024;-58
2023/05/04 11:30:16;;;;;;;;;;;;;;;20.99;24.98;101328.09;102516;278;119085;-56
2023/05/04 11:32:56;;;;;;;;;;;;;;;20.80;25.07;101322.41;102544;278;105365;-55
2023/05/04 11:35:35;;;;;;;;;;;;;;;20.79;25.17;101317.95;102476;278;114916;-55
2023/05/04 11:38:08;;;;;;;;;;;;;;;20.72;25.20;101313.58;102498;279;95058;-55
2023/05/04 11:40:53;;;;;;;;;;;;;;;20.24;25.17;101307.58;102520;278;98515;-55
2023/05/04 11:43:31;;;;;;;;;;;;;;;19.89;25.53;101311.88;102495;278;120556;-55
2023/05/04 11:46:09;;;;;;;;;;;;;;;19.63;25.30;101314.90;102511;279;105747;-58
2023/05/04 11:48:48;;;;;;;;;;;;;;;19.21;25.78;101311.30;102546;278;114925;-58
2023/05/04 11:51:28;;;;;;;;;;;;;;;19.28;26.20;101310.52;102491;278;95132;-57
2023/05/04 11:54:05;;;;;;;;;;;;;;;18.91;25.72;101311.54;102557;278;95340;-56
2023/05/04 11:56:45;;;;;;;;;;;;;;;18.67;25.74;101311.61;102518;278;120128;-54
2023/05/04 11:59:24;;;;;;;;;;;;;;;18.66;25.70;101310.77;102510;278;105705;-56
2023/05/04 12:02:05;;;;;;;;;;;;;;;18.84;25.82;101308.81;102522;278;112751;-55
2023/05/04 12:04:45;;;;;;;;;;;;;;;18.96;25.68;101303.83;102486;278;94605;-56
2023/05/04 12:07:22;;;;;;;;;;;;;;;19.08;25.65;101299.06;102518;278;98424;-57
2023/05/04 12:09:59;;;;;;;;;;;;;;;19.15;25.47;101296.84;102514;266;120603;-55
2023/05/04 12:12:41;;;;;;;;;;;;;;;19.28;25.63;101297.23;102555;278;103712;-55
2023/05/04 12:15:29;;;;;;;;;;;;;;;19.36;25.69;101300.20;102523;278;114731;-56
2023/05/04 12:18:04;;;;;;;;;;;;;;;19.42;25.60;101300.51;102521;278;94899;-57
2023/05/04 12:20:43;;;;;;;;;;;;;;;19.37;25.38;101297.20;102605;278;97954;-56
2023/05/04 12:23:26;;;;;;;;;;;;;;;19.26;25.47;101293.88;102560;266;120826;-56
2023/05/04 12:26:03;;;;;;;;;;;;;;;18.94;25.56;101292.05;102531;278;104253;-57
2023/05/04 12:28:41;;;;;;;;;;;;;;;18.85;25.65;101284.23;102514;278;114602;-58
2023/05/04 12:31:17;;;;;;;;;;;;;;;18.94;26.05;101281.30;102578;278;94979;-55
2023/05/04 12:33:53;;;;;;;;;;;;;;;18.99;25.90;101275.66;102584;278;96691;-54
2023/05/04 12:36:35;;;;;;;;;;;;;;;18.92;26.00;101273.40;102582;277;120429;-56
2023/05/04 12:39:18;;;;;;;;;;;;;;;18.79;25.98;101268.36;102558;278;105568;-56
2023/05/04 12:41:58;;;;;;;;;;;;;;;18.82;26.37;101266.27;102563;278;114856;-55
2023/05/04 12:44:38;;;;;;;;;;;;;;;18.85;26.24;101266.51;102613;278;94606;-56
2023/05/04 12:47:16;;;;;;;;;;;;;;;18.75;26.07;101261.53;102562;278;97452;-56
2023/05/04 12:49:52;;;;;;;;;;;;;;;18.74;26.12;101260.77;102580;278;121827;-55
2023/05/04 12:52:26;;;;;;;;;;;;;;;18.83;25.93;101258.73;102584;278;104978;-54
2023/05/04 12:54:59;;;;;;;;;;;;;;;18.80;25.92;101256.90;102542;278;114857;-54
2023/05/04 12:57:33;;;;;;;;;;;;;;;18.79;26.02;101258.80;102586;277;94829;-54
2023/05/04 13:00:09;;;;;;;;;;;;;;;18.70;25.72;101259.96;102615;278;95022;-55
2023/05/04 13:02:45;;;;;;;;;;;;;;;18.74;26.28;101256.82;102534;278;120322;-52
2023/05/04 13:05:21;;;;;;;;;;;;;;;18.74;26.71;101256.52;102598;278;105184;-55
2023/05/04 13:07:55;;;;;;;;;;;;;;;18.79;26.49;101253.12;102568;278;113657;-54
2023/05/04 13:10:29;;;;;;;;;;;;;;;18.83;26.39;101252.31;102567;278;94517;-57
2023/05/04 13:13:08;;;;;;;;;;;;;;;18.90;26.43;101248.05;102577;278;97104;-56
2023/05/04 13:15:44;;;;;;;;;;;;;;;18.83;26.98;101246.68;102584;277;120709;-55
2023/05/04 13:18:25;;;;;;;;;;;;;;;18.92;27.34;101245.55;102601;277;106646;-54
2023/05/04 13:21:07;;;;;;;;;;;;;;;19.00;27.26;101247.76;102605;277;114322;-55
2023/05/04 13:23:42;;;;;;;;;;;;;;;18.94;26.93;101242.17;102553;278;94668;-55
2023/05/04 13:26:18;;;;;;;;;;;;;;;18.84;26.80;101242.17;102587;278;98254;-56